createdAt,value
2022-12-13T00:00:39.364Z,0.20
2022-12-13T00:03:11.422Z,0.10
2022-12-13T00:05:45.515Z,0.10
2022-12-13T00:08:20.494Z,0.10
2022-12-13T00:10:49.259Z,0.10
2022-12-13T00:13:18.334Z,0.10
2022-12-13T00:16:01.758Z,0.10
2022-12-13T00:18:30.550Z,0.10
2022-12-13T00:21:19.631Z,0.10
2022-12-13T00:23:52.443Z,0.00
2022-12-13T00:26:44.729Z,0.10
2022-12-13T00:29:18.083Z,0.10
2022-12-13T00:31:59.264Z,0.10
2022-12-13T00:34:28.915Z,0.10
2022-12-13T00:37:01.331Z,0.00
2022-12-13T00:39:31.616Z,0.00
2022-12-13T00:42:21.184Z,0.00
2022-12-13T00:45:09.642Z,0.00
2022-12-13T00:47:38.149Z,0.00
2022-12-13T00:50:21.086Z,0.00
2022-12-13T00:52:50.712Z,0.00
2022-12-13T00:55:43.873Z,0.00
2022-12-13T00:58:11.830Z,0.00
2022-12-13T01:00:40.051Z,0.00
2022-12-13T01:03:48.679Z,-0.10
2022-12-13T01:06:19.810Z,0.00
2022-12-13T01:08:49.838Z,-0.10
2022-12-13T01:11:21.870Z,-0.10
2022-12-13T01:13:55.474Z,-0.10
2022-12-13T01:16:23.666Z,-0.10
2022-12-13T01:18:56.124Z,-0.10
2022-12-13T01:21:26.176Z,-0.10
2022-12-13T01:23:56.883Z,-0.10
2022-12-13T01:26:48.709Z,-0.10
2022-12-13T01:29:16.801Z,-0.10
2022-12-13T01:31:47.344Z,-0.10
2022-12-13T01:34:20.663Z,-0.20
2022-12-13T01:36:49.349Z,-0.20
2022-12-13T01:39:26.586Z,-0.20
2022-12-13T01:42:00.256Z,-0.20
2022-12-13T01:45:00.417Z,-0.20
2022-12-13T01:47:34.175Z,-0.20
2022-12-13T01:50:08.376Z,-0.20
2022-12-13T01:52:37.368Z,-0.20
2022-12-13T01:55:13.195Z,-0.20
2022-12-13T01:57:47.608Z,-0.20
2022-12-13T02:00:18.374Z,-0.20
2022-12-13T02:03:21.422Z,-0.30
2022-12-13T02:06:17.268Z,-0.30
2022-12-13T02:08:48.277Z,-0.30
2022-12-13T02:11:17.187Z,-0.30
2022-12-13T02:13:46.699Z,-0.30
2022-12-13T02:16:23.005Z,-0.30
2022-12-13T02:19:44.923Z,-0.30
2022-12-13T02:22:52.031Z,-0.30
2022-12-13T02:25:56.078Z,-0.30
2022-12-13T02:28:42.371Z,-0.40
2022-12-13T02:31:15.999Z,-0.30
2022-12-13T02:33:52.395Z,-0.40
2022-12-13T02:36:26.902Z,-0.40
2022-12-13T02:39:00.872Z,-0.40
2022-12-13T02:41:37.519Z,-0.40
2022-12-13T02:44:21.966Z,-0.40
2022-12-13T02:46:56.092Z,-0.50
2022-12-13T02:49:26.662Z,-0.40
2022-12-13T02:51:56.695Z,-0.40
2022-12-13T02:54:25.339Z,-0.40
2022-12-13T02:56:57.172Z,-0.40
2022-12-13T02:59:48.239Z,-0.50
2022-12-13T03:02:35.301Z,-0.50
2022-12-13T03:05:28.871Z,-0.40
2022-12-13T03:08:10.544Z,-0.40
2022-12-13T03:10:48.325Z,-0.50
2022-12-13T03:13:39.273Z,-0.50
2022-12-13T03:16:35.426Z,-0.50
2022-12-13T03:19:08.234Z,-0.50
2022-12-13T03:21:47.601Z,-0.50
2022-12-13T03:24:19.473Z,-0.60
2022-12-13T03:27:07.829Z,-0.60
2022-12-13T03:29:35.844Z,-0.60
2022-12-13T03:32:05.471Z,-0.60
2022-12-13T03:35:00.916Z,-0.60
2022-12-13T03:37:33.555Z,-0.60
2022-12-13T03:40:01.855Z,-0.60
2022-12-13T03:42:30.170Z,-0.60
2022-12-13T03:45:00.544Z,-0.60
2022-12-13T03:47:28.792Z,-0.60
2022-12-13T03:50:25.271Z,-0.60
2022-12-13T03:52:51.419Z,-0.60
2022-12-13T03:55:19.950Z,-0.70
2022-12-13T03:57:48.071Z,-0.60
2022-12-13T04:00:19.374Z,-0.60
2022-12-13T04:02:47.859Z,-0.70
2022-12-13T04:05:19.482Z,-0.70
2022-12-13T04:07:48.250Z,-0.70
2022-12-13T04:10:25.910Z,-0.70
2022-12-13T04:13:13.255Z,-0.70
2022-12-13T04:15:51.290Z,-0.70
2022-12-13T04:18:20.661Z,-0.70
2022-12-13T04:20:50.873Z,-0.70
2022-12-13T04:23:20.374Z,-0.70
2022-12-13T04:25:53.121Z,-0.80
2022-12-13T04:28:23.260Z,-0.70
2022-12-13T04:30:53.094Z,-0.70
2022-12-13T04:33:25.774Z,-0.80
2022-12-13T04:35:55.770Z,-0.80
2022-12-13T04:38:25.108Z,-0.80
2022-12-13T04:40:54.832Z,-0.80
2022-12-13T04:43:30.280Z,-0.80
2022-12-13T04:45:59.501Z,-0.80
2022-12-13T04:48:30.805Z,-0.80
2022-12-13T04:51:33.344Z,-0.80
2022-12-13T04:54:24.377Z,-0.90
2022-12-13T04:56:53.428Z,-0.80
2022-12-13T04:59:21.425Z,-0.90
2022-12-13T05:01:49.679Z,-0.90
2022-12-13T05:04:18.140Z,-0.90
2022-12-13T05:07:08.454Z,-0.90
2022-12-13T05:09:46.392Z,-0.90
2022-12-13T05:12:22.248Z,-0.90
2022-12-13T05:14:50.968Z,-0.90
2022-12-13T05:17:20.832Z,-0.90
2022-12-13T05:19:48.789Z,-1.00
2022-12-13T05:22:20.881Z,-0.90
2022-12-13T05:24:49.434Z,-0.90
2022-12-13T05:27:25.734Z,-0.90
2022-12-13T05:30:03.325Z,-0.90
2022-12-13T05:32:44.288Z,-0.90
2022-12-13T05:35:13.386Z,-0.90
2022-12-13T05:37:46.526Z,-0.90
2022-12-13T05:40:21.656Z,-0.90
2022-12-13T05:42:49.755Z,-0.90
2022-12-13T05:45:19.828Z,-0.90
2022-12-13T05:47:48.544Z,-1.00
2022-12-13T05:50:17.527Z,-1.00
2022-12-13T05:52:46.909Z,-1.00
2022-12-13T05:55:15.295Z,-1.00
2022-12-13T05:57:50.095Z,-1.00
2022-12-13T06:00:29.652Z,-1.00
2022-12-13T06:03:00.664Z,-1.00
2022-12-13T06:05:29.934Z,-1.00
2022-12-13T06:08:00.645Z,-1.00
2022-12-13T06:10:34.721Z,-1.00
2022-12-13T06:13:21.225Z,-1.00
2022-12-13T06:15:50.503Z,-1.10
2022-12-13T06:18:18.812Z,-1.10
2022-12-13T06:20:47.453Z,-1.10
2022-12-13T06:23:17.124Z,-1.10
2022-12-13T06:25:51.537Z,-1.10
2022-12-13T06:28:20.059Z,-1.10
2022-12-13T06:30:48.174Z,-1.10
2022-12-13T06:33:23.544Z,-1.10
2022-12-13T06:35:52.756Z,-1.10
2022-12-13T06:38:31.345Z,-1.20
2022-12-13T06:41:10.645Z,-1.20
2022-12-13T06:43:38.804Z,-1.20
2022-12-13T06:46:07.049Z,-1.20
2022-12-13T06:48:38.116Z,-1.20
2022-12-13T06:51:09.238Z,-1.20
2022-12-13T06:53:39.969Z,-1.20
2022-12-13T06:56:10.221Z,-1.30
2022-12-13T06:58:38.424Z,-1.20
2022-12-13T07:01:14.614Z,-1.20
2022-12-13T07:03:51.872Z,-1.20
2022-12-13T07:06:21.329Z,-1.30
2022-12-13T07:08:52.951Z,-1.30
2022-12-13T07:11:22.570Z,-1.40
2022-12-13T07:13:50.569Z,-1.30
2022-12-13T07:16:19.103Z,-1.30
2022-12-13T07:18:47.320Z,-1.30
2022-12-13T07:21:21.873Z,-1.30
2022-12-13T07:23:54.855Z,-1.30
2022-12-13T07:26:23.816Z,-1.30
2022-12-13T07:28:55.268Z,-1.30
2022-12-13T07:31:24.374Z,-1.30
2022-12-13T07:33:53.730Z,-1.40
2022-12-13T07:36:23.780Z,-1.40
2022-12-13T07:38:54.958Z,-1.40
2022-12-13T07:41:24.447Z,-1.40
2022-12-13T07:43:55.298Z,-1.40
2022-12-13T07:46:32.847Z,-1.30
2022-12-13T07:49:02.887Z,-1.30
2022-12-13T07:51:31.002Z,-1.40
2022-12-13T07:54:00.821Z,-1.30
2022-12-13T07:56:35.074Z,-1.40
2022-12-13T07:59:03.231Z,-1.40
2022-12-13T08:01:34.671Z,-1.40
2022-12-13T08:04:03.845Z,-1.40
2022-12-13T08:06:35.782Z,-1.30
2022-12-13T08:09:06.293Z,-1.30
2022-12-13T08:11:36.821Z,-1.40
2022-12-13T08:14:04.927Z,-1.30
2022-12-13T08:16:33.411Z,-1.30
2022-12-13T08:19:04.277Z,-1.30
2022-12-13T08:21:53.947Z,-1.30
2022-12-13T08:24:25.437Z,-1.30
2022-12-13T08:26:53.604Z,-1.30
2022-12-13T08:29:23.079Z,-1.30
2022-12-13T08:32:02.391Z,-1.20
2022-12-13T08:34:31.768Z,-1.30
2022-12-13T08:37:01.657Z,-1.30
2022-12-13T08:39:35.545Z,-1.20
2022-12-13T08:42:26.227Z,-1.20
2022-12-13T08:44:54.920Z,-1.20
2022-12-13T08:47:26.738Z,-1.10
2022-12-13T08:50:01.274Z,-1.10
2022-12-13T08:52:30.838Z,-1.10
2022-12-13T08:55:00.326Z,-1.00
2022-12-13T08:57:28.550Z,-1.00
2022-12-13T08:59:56.853Z,-1.00
2022-12-13T09:02:25.650Z,-0.90
2022-12-13T09:04:53.936Z,-0.90
2022-12-13T09:07:22.024Z,-0.90
2022-12-13T09:09:54.733Z,-0.90
2022-12-13T09:12:29.825Z,-0.80
2022-12-13T09:15:00.877Z,-0.80
2022-12-13T09:17:36.973Z,-0.80
2022-12-13T09:20:10.319Z,-0.70
2022-12-13T09:23:01.871Z,-0.70
2022-12-13T09:25:37.084Z,-0.60
2022-12-13T09:28:08.528Z,-0.60
2022-12-13T09:30:37.274Z,-0.60
2022-12-13T09:33:17.684Z,-0.60
2022-12-13T09:35:54.139Z,-0.60
2022-12-13T09:38:22.542Z,-0.50
2022-12-13T09:40:59.095Z,-0.50
2022-12-13T09:43:42.397Z,-0.40
2022-12-13T09:46:22.808Z,-0.40
2022-12-13T09:49:01.742Z,-0.40
2022-12-13T09:51:44.741Z,-0.30
2022-12-13T09:54:20.268Z,-0.30
2022-12-13T09:56:51.372Z,-0.30
2022-12-13T09:59:31.472Z,-0.20
2022-12-13T10:02:13.571Z,-0.20
2022-12-13T10:04:42.662Z,-0.10
2022-12-13T10:07:18.785Z,-0.10
2022-12-13T10:09:47.801Z,-0.10
2022-12-13T10:12:18.224Z,-0.10
2022-12-13T10:14:52.394Z,-0.10
2022-12-13T10:17:24.633Z,0.00
2022-12-13T10:19:53.786Z,0.00
2022-12-13T10:22:23.786Z,0.00
2022-12-13T10:24:54.132Z,0.10
2022-12-13T10:27:29.787Z,0.10
2022-12-13T10:30:02.427Z,0.10
2022-12-13T10:32:37.394Z,0.20
2022-12-13T10:35:22.038Z,0.20
2022-12-13T10:37:50.631Z,0.20
2022-12-13T10:40:33.048Z,0.20
2022-12-13T10:43:14.794Z,0.20
2022-12-13T10:45:45.987Z,0.30
2022-12-13T10:48:22.365Z,0.30
2022-12-13T10:51:01.207Z,0.30
2022-12-13T10:53:35.081Z,0.40
2022-12-13T10:56:06.311Z,0.40
2022-12-13T10:58:41.155Z,0.40
2022-12-13T11:01:21.259Z,0.40
2022-12-13T11:04:01.991Z,0.50
2022-12-13T11:06:43.277Z,0.50
2022-12-13T11:09:22.948Z,0.50
2022-12-13T11:11:58.792Z,0.60
2022-12-13T11:14:33.103Z,0.60
2022-12-13T11:17:11.742Z,0.60
2022-12-13T11:19:45.427Z,0.70
2022-12-13T11:22:22.290Z,0.70
2022-12-13T11:24:52.581Z,0.80
2022-12-13T11:27:33.903Z,0.80
2022-12-13T11:30:13.062Z,0.80
2022-12-13T11:33:02.435Z,0.80
2022-12-13T11:35:39.783Z,0.90
2022-12-13T11:38:16.649Z,0.90
2022-12-13T11:40:48.423Z,0.90
2022-12-13T11:43:26.377Z,0.90
2022-12-13T11:45:57.362Z,0.90
2022-12-13T11:48:38.127Z,0.90
2022-12-13T11:51:09.114Z,0.90
2022-12-13T11:53:46.023Z,1.00
2022-12-13T11:56:20.660Z,1.00
2022-12-13T11:59:05.536Z,1.00
2022-12-13T12:01:39.035Z,1.00
2022-12-13T12:04:18.190Z,1.00
2022-12-13T12:06:52.724Z,1.00
2022-12-13T12:09:24.124Z,1.10
2022-12-13T12:11:58.813Z,1.10
2022-12-13T12:14:37.100Z,1.10
2022-12-13T12:17:06.626Z,1.20
2022-12-13T12:19:39.375Z,1.20
2022-12-13T12:22:18.714Z,1.20
2022-12-13T12:25:02.293Z,1.30
2022-12-13T12:27:42.037Z,1.30
2022-12-13T12:30:22.932Z,1.30
2022-12-13T12:32:58.798Z,1.30
2022-12-13T12:35:57.223Z,1.20
2022-12-13T12:38:44.322Z,1.30
2022-12-13T12:41:27.952Z,1.30
2022-12-13T12:44:03.851Z,1.30
2022-12-13T12:47:18.116Z,1.40
2022-12-13T12:50:18.460Z,1.30
2022-12-13T12:53:04.169Z,1.40
2022-12-13T12:55:43.135Z,1.40
2022-12-13T12:58:19.553Z,1.40
2022-12-13T13:00:56.719Z,1.40
2022-12-13T13:03:26.926Z,1.40
2022-12-13T13:06:02.572Z,1.30
2022-12-13T13:08:38.915Z,1.40
2022-12-13T13:11:24.844Z,1.40
2022-12-13T13:14:04.511Z,1.30
2022-12-13T13:16:39.081Z,1.40
2022-12-13T13:19:27.397Z,1.30
2022-12-13T13:22:01.697Z,1.30
2022-12-13T13:24:33.377Z,1.30
2022-12-13T13:27:28.672Z,1.30
2022-12-13T13:30:06.735Z,1.30
2022-12-13T13:32:40.911Z,1.30
2022-12-13T13:35:53.264Z,1.30
2022-12-13T13:39:01.746Z,1.30
2022-12-13T13:42:12.064Z,1.40
2022-12-13T13:44:58.159Z,1.40
2022-12-13T13:47:38.968Z,1.40
2022-12-13T13:50:39.329Z,1.40
2022-12-13T13:53:56.185Z,1.30
2022-12-13T13:56:49.943Z,1.40
2022-12-13T14:13:19.887Z,1.20
2022-12-13T14:16:20.895Z,1.20
2022-12-13T14:19:34.190Z,1.20
2022-12-13T14:22:14.510Z,1.20
2022-12-13T14:24:52.494Z,1.10
2022-12-13T14:27:33.392Z,1.20
2022-12-13T14:30:27.552Z,1.10
2022-12-13T14:32:52.545Z,1.10
2022-12-13T14:35:26.841Z,1.10
2022-12-13T14:38:01.329Z,1.00
2022-12-13T14:40:32.554Z,1.10
2022-12-13T14:43:04.158Z,1.10
2022-12-13T14:45:34.409Z,1.20
2022-12-13T14:48:08.321Z,1.10
2022-12-13T14:50:38.092Z,1.10
2022-12-13T14:53:06.589Z,1.10
2022-12-13T14:55:37.644Z,1.10
2022-12-13T14:58:17.681Z,1.00
2022-12-13T15:00:46.282Z,1.00
2022-12-13T15:03:25.379Z,0.90
2022-12-13T15:05:56.228Z,0.90
2022-12-13T15:08:25.449Z,0.90
2022-12-13T15:10:55.790Z,0.90
2022-12-13T15:13:29.676Z,0.80
2022-12-13T15:16:01.239Z,0.90
2022-12-13T15:18:31.704Z,0.90
2022-12-13T15:21:00.175Z,0.90
2022-12-13T15:23:31.869Z,0.90
2022-12-13T15:26:03.372Z,0.90
2022-12-13T15:28:35.324Z,0.90
2022-12-13T15:31:05.156Z,0.80
2022-12-13T15:33:39.450Z,0.80
2022-12-13T15:36:16.603Z,0.80
2022-12-13T15:38:50.073Z,0.80
2022-12-13T15:41:20.313Z,0.80
2022-12-13T15:43:51.501Z,0.80
2022-12-13T15:46:26.032Z,0.80
2022-12-13T15:48:57.620Z,0.80
2022-12-13T15:51:29.576Z,0.80
2022-12-13T15:54:04.996Z,0.80
2022-12-13T15:56:35.773Z,0.70
2022-12-13T15:59:05.535Z,0.70
2022-12-13T16:01:36.351Z,0.60
2022-12-13T16:04:07.088Z,0.60
2022-12-13T16:06:35.368Z,0.60
2022-12-13T16:09:07.979Z,0.50
2022-12-13T16:11:40.355Z,0.60
2022-12-13T16:14:50.028Z,0.60
2022-12-13T16:17:25.710Z,0.50
2022-12-13T16:19:56.525Z,0.50
2022-12-13T16:22:24.581Z,0.50
2022-12-13T16:24:53.271Z,0.50
2022-12-13T16:27:21.893Z,0.50
2022-12-13T16:29:49.839Z,0.50
2022-12-13T16:32:17.858Z,0.50
2022-12-13T16:34:46.057Z,0.40
2022-12-13T16:37:26.409Z,0.40
2022-12-13T16:39:55.632Z,0.40
2022-12-13T16:42:26.456Z,0.40
2022-12-13T16:45:17.679Z,0.30
2022-12-13T16:47:48.757Z,0.30
2022-12-13T16:50:19.097Z,0.40
2022-12-13T16:52:49.060Z,0.40
2022-12-13T16:55:17.530Z,0.30
2022-12-13T16:57:45.751Z,0.30
2022-12-13T17:00:14.905Z,0.40
2022-12-13T17:02:43.078Z,0.30
2022-12-13T17:05:11.491Z,0.30
2022-12-13T17:07:39.610Z,0.30
2022-12-13T17:10:11.659Z,0.30
2022-12-13T17:12:40.181Z,0.30
2022-12-13T17:15:10.044Z,0.40
2022-12-13T17:17:38.404Z,0.40
2022-12-13T17:20:08.356Z,0.40
2022-12-13T17:22:36.902Z,0.40
2022-12-13T17:25:06.388Z,0.40
2022-12-13T17:27:37.802Z,0.40
2022-12-13T17:30:08.262Z,0.40
2022-12-13T17:32:37.354Z,0.40
2022-12-13T17:35:06.074Z,0.40
2022-12-13T17:37:34.051Z,0.40
2022-12-13T17:40:02.477Z,0.40
2022-12-13T17:42:30.486Z,0.30
2022-12-13T17:45:00.094Z,0.40
2022-12-13T17:47:28.416Z,0.40
2022-12-13T17:49:56.456Z,0.40
2022-12-13T17:52:24.411Z,0.30
2022-12-13T17:54:52.438Z,0.40
2022-12-13T17:57:20.483Z,0.30
2022-12-13T17:59:49.137Z,0.30
2022-12-13T18:02:23.177Z,0.40
2022-12-13T18:04:51.728Z,0.30
2022-12-13T18:07:19.921Z,0.30
2022-12-13T18:09:48.348Z,0.30
2022-12-13T18:12:16.661Z,0.30
2022-12-13T18:14:44.805Z,0.20
2022-12-13T18:17:14.058Z,0.30
2022-12-13T18:19:43.502Z,0.30
2022-12-13T18:22:12.694Z,0.30
2022-12-13T18:24:40.927Z,0.30
2022-12-13T18:27:09.080Z,0.20
2022-12-13T18:29:42.227Z,0.30
2022-12-13T18:32:23.250Z,0.30
2022-12-13T18:34:54.821Z,0.30
2022-12-13T18:37:23.222Z,0.30
2022-12-13T18:39:54.720Z,0.30
2022-12-13T18:42:23.217Z,0.20
2022-12-13T18:44:54.836Z,0.30
2022-12-13T18:47:23.028Z,0.30
2022-12-13T18:49:55.170Z,0.30
2022-12-13T18:52:24.497Z,0.30
2022-12-13T18:54:55.368Z,0.20
2022-12-13T18:57:25.452Z,0.20
2022-12-13T19:00:22.799Z,0.30
2022-12-13T19:03:15.601Z,0.30
2022-12-13T19:06:13.588Z,0.30
2022-12-13T19:08:42.725Z,0.20
2022-12-13T19:11:14.973Z,0.20
2022-12-13T19:13:46.302Z,0.20
2022-12-13T19:16:17.196Z,0.20
2022-12-13T19:18:45.951Z,0.20
2022-12-13T19:21:21.378Z,0.10
2022-12-13T19:23:57.360Z,0.10
2022-12-13T19:26:28.129Z,0.20
2022-12-13T19:28:57.787Z,0.20
2022-12-13T19:31:32.198Z,0.10
2022-12-13T19:34:03.753Z,0.10
2022-12-13T19:36:33.890Z,0.00
2022-12-13T19:39:23.449Z,0.10
2022-12-13T19:41:52.968Z,0.10
2022-12-13T19:44:22.615Z,0.10
2022-12-13T19:46:53.598Z,0.10
2022-12-13T19:49:42.047Z,0.10
2022-12-13T19:52:13.940Z,0.10
2022-12-13T19:54:44.850Z,0.00
2022-12-13T19:57:15.840Z,0.00
2022-12-13T19:59:44.884Z,0.00
2022-12-13T20:02:17.120Z,0.00
2022-12-13T20:04:48.106Z,0.00
2022-12-13T20:07:20.954Z,0.00
2022-12-13T20:09:50.694Z,0.00
2022-12-13T20:12:21.559Z,0.00
2022-12-13T20:14:49.766Z,0.00
2022-12-13T20:17:23.179Z,0.00
2022-12-13T20:19:53.074Z,0.00
2022-12-13T20:22:23.338Z,0.00
2022-12-13T20:25:12.667Z,-0.10
2022-12-13T20:27:44.067Z,-0.10
2022-12-13T20:30:17.470Z,0.00
2022-12-13T20:32:46.734Z,0.00
2022-12-13T20:36:23.134Z,0.00
2022-12-13T20:38:46.343Z,0.00
2022-12-13T20:41:17.670Z,0.00
2022-12-13T20:43:48.613Z,0.00
2022-12-13T20:46:17.202Z,-0.10
2022-12-13T20:48:47.911Z,0.00
2022-12-13T20:51:19.891Z,0.00
2022-12-13T20:53:51.773Z,-0.10
2022-12-13T20:56:25.241Z,0.00
2022-12-13T20:58:54.202Z,0.00
2022-12-13T21:01:26.436Z,0.00
2022-12-13T21:04:02.402Z,0.00
2022-12-13T21:06:32.522Z,-0.10
2022-12-13T21:09:03.548Z,0.00
2022-12-13T21:11:35.407Z,0.00
2022-12-13T21:14:25.820Z,0.00
2022-12-13T21:16:57.535Z,0.00
2022-12-13T21:19:37.526Z,0.00
2022-12-13T21:22:09.054Z,0.00
2022-12-13T21:24:43.592Z,0.00
2022-12-13T21:27:16.660Z,0.00
2022-12-13T21:30:28.401Z,0.00
2022-12-13T21:35:43.513Z,0.10
2022-12-13T21:38:13.187Z,0.10
2022-12-13T21:41:07.731Z,0.00
2022-12-13T21:44:03.317Z,0.00
2022-12-13T21:47:10.223Z,0.10
2022-12-13T21:49:37.616Z,0.00
2022-12-13T21:52:11.404Z,0.00
2022-12-13T21:55:37.324Z,0.00
2022-12-13T21:58:33.561Z,0.00
2022-12-13T22:31:29.794Z,-0.10
2022-12-13T22:33:59.705Z,-0.10
2022-12-13T22:36:28.105Z,-0.10
2022-12-13T22:39:00.875Z,-0.10
2022-12-13T22:41:54.749Z,-0.10
2022-12-13T22:44:31.024Z,-0.10
2022-12-13T22:47:03.242Z,-0.10
2022-12-13T22:49:32.559Z,0.00
2022-12-13T22:52:03.330Z,0.00
2022-12-13T22:54:34.394Z,0.00
2022-12-13T22:57:03.453Z,0.00
2022-12-13T22:59:52.557Z,0.00
2022-12-13T23:02:23.273Z,0.00
2022-12-13T23:05:11.967Z,0.00
2022-12-13T23:07:43.555Z,0.00
2022-12-13T23:10:43.058Z,-0.10
2022-12-13T23:13:19.620Z,-0.10
2022-12-13T23:15:50.477Z,-0.10
2022-12-13T23:18:21.178Z,-0.10
2022-12-13T23:20:50.484Z,0.00
2022-12-13T23:23:24.634Z,-0.10
2022-12-13T23:25:56.462Z,-0.10
2022-12-13T23:28:25.801Z,-0.10
2022-12-13T23:30:56.676Z,0.00
2022-12-13T23:33:29.942Z,0.00
2022-12-13T23:36:25.911Z,0.00
2022-12-13T23:38:55.660Z,0.00
2022-12-13T23:41:33.910Z,0.00
2022-12-13T23:44:07.117Z,0.00
2022-12-13T23:46:39.900Z,0.00
2022-12-13T23:49:21.745Z,0.00
2022-12-13T23:52:13.330Z,0.00
2022-12-13T23:55:07.759Z,0.00
2022-12-13T23:57:36.485Z,0.00
